Flight Information

DEPARTURE
RENO, NV
Elevation:
4414
Runways:
7/25 - 6102x150 - CONC-G
16L/34R - 9000x150 - CONC-G
16R/34L - 11001x150 - CONC-G
Active PE Departure:
16R - 16L
Current PE ATIS:
E
Altimeter:
30.38
Remarks:
V F R DEPARTURES CONTACT CLEARANCE DELIVERY, ADVISE ON COURSE HEADING, ALTITUDE, AND IF FLIGHT FOLLOWING IS REQUESTED.
ATIS:
135.8 775-348-1550
Clearance Delivery:
124.9
Ground:
121.9
Tower:
RENO TOWER 118.7
DESTINATION
,
Elevation:
TPA:
1000 (est.)


6751.3 NM70° True-16° Var53° HDG

Flight Plan:
(click to file on line)

1. Type
2. Aircraft Identification
3. Aircraft Type / Special Equipment
4. True Airspeed
kts
5. Departure Airport
(ICAO code)
6. Arriving Airport
(ICAO code)
7. Cruising Altitude
ft
8. Alternate Airport
(ICAO code)
9. Route of Flight
10. Remarks


00:00:00 Departure ATIS: Destination ATIS:

Clearance Limit:
Route:
Altitude: Expect in minutes
Frequency:
Transponder: (7500 Hijack / 7600 Lost Comms / 7700 Emergency)


KRNO 282155Z 00000KT 10SM BKN250 09/M07 A3038 RMK AO2 SLP293 T00941072
Time: 2022-01-28T21:55:00Z
1643410104
Winds: calm
Visibility: 10.0 sm
Clouds (AGL): BKN 25000
Temperature: 9.4 C
Dew Point: -7.2 C
Pressure: 30.380905 in Hgbr


Notes:

Data extracted from FAA Digital Chart Supplement. Effective: 0901Z Thursday, DEC 2, 2021 to 0901Z Thursday, JAN 27, 2022
Current ATIS data is provided courtisy of PilotEdge.